createdAt,value
2022-09-18T00:02:01.267Z,92.63
2022-09-18T00:04:30.927Z,93.29
2022-09-18T00:07:00.188Z,95.17
2022-09-18T00:09:29.259Z,94.10
2022-09-18T00:12:00.132Z,95.47
2022-09-18T00:14:29.104Z,95.43
2022-09-18T00:16:58.199Z,93.32
2022-09-18T00:19:27.289Z,94.68
2022-09-18T00:21:56.319Z,92.94
2022-09-18T00:24:25.333Z,91.72
2022-09-18T00:26:54.352Z,91.87
2022-09-18T00:29:24.677Z,91.92
2022-09-18T00:31:53.649Z,89.08
2022-09-18T00:34:22.755Z,88.85
2022-09-18T00:36:51.711Z,87.75
2022-09-18T00:39:20.738Z,87.41
2022-09-18T00:41:49.932Z,89.68
2022-09-18T00:44:36.841Z,89.02
2022-09-18T00:47:36.165Z,88.42
2022-09-18T00:50:11.930Z,89.04
2022-09-18T00:52:51.292Z,87.58
2022-09-18T00:55:24.885Z,87.88
2022-09-18T00:57:56.663Z,87.37
2022-09-18T01:00:27.480Z,87.50
2022-09-18T01:02:56.998Z,86.70
2022-09-18T01:05:36.347Z,85.87
2022-09-18T01:08:16.933Z,86.89
2022-09-18T01:11:01.730Z,86.50
2022-09-18T01:13:42.529Z,85.80
2022-09-18T01:16:20.962Z,85.99
2022-09-18T01:18:58.090Z,84.01
2022-09-18T01:21:34.142Z,86.47
2022-09-18T01:24:34.976Z,86.41
2022-09-18T01:27:07.236Z,84.49
2022-09-18T01:29:48.875Z,85.82
2022-09-18T01:32:27.786Z,85.98
2022-09-18T01:35:10.128Z,86.66
2022-09-18T01:37:54.135Z,85.82
2022-09-18T01:40:29.661Z,86.33
2022-09-18T01:43:03.771Z,85.21
2022-09-18T01:45:38.750Z,87.21
2022-09-18T01:48:11.762Z,87.76
2022-09-18T01:50:48.419Z,87.95
2022-09-18T01:53:23.253Z,88.87
2022-09-18T01:55:57.715Z,88.35
2022-09-18T01:58:30.064Z,87.75
2022-09-18T02:01:06.667Z,88.27
2022-09-18T02:03:40.432Z,89.67
2022-09-18T02:06:14.415Z,88.51
2022-09-18T02:08:47.835Z,87.26
2022-09-18T02:11:19.306Z,89.22
2022-09-18T02:13:54.738Z,88.62
2022-09-18T02:16:36.989Z,89.69
2022-09-18T02:19:11.866Z,87.97
2022-09-18T02:21:42.672Z,86.90
2022-09-18T02:24:15.655Z,87.47
2022-09-18T02:26:47.375Z,88.58
2022-09-18T02:29:18.847Z,87.15
2022-09-18T02:31:50.441Z,88.09
2022-09-18T02:34:21.054Z,89.73
2022-09-18T02:37:08.883Z,89.22
2022-09-18T02:39:50.227Z,90.29
2022-09-18T02:42:34.495Z,91.35
2022-09-18T02:45:12.335Z,90.53
2022-09-18T02:47:55.159Z,91.35
2022-09-18T02:50:33.896Z,91.32
2022-09-18T02:53:07.032Z,92.79
2022-09-18T02:55:44.823Z,91.90
2022-09-18T02:58:21.830Z,93.01
2022-09-18T03:00:55.924Z,92.60
2022-09-18T03:03:31.734Z,93.48
2022-09-18T03:06:04.734Z,94.30
2022-09-18T03:08:36.776Z,95.73
2022-09-18T03:11:07.599Z,95.96
2022-09-18T03:13:36.868Z,96.14
2022-09-18T03:16:06.071Z,98.22
2022-09-18T03:18:36.561Z,98.40
2022-09-18T03:21:06.330Z,99.06
2022-09-18T03:23:35.389Z,99.35
2022-09-18T03:26:15.452Z,98.29
2022-09-18T03:28:44.951Z,97.88
2022-09-18T03:31:15.759Z,96.98
2022-09-18T03:33:47.604Z,95.72
2022-09-18T03:36:16.540Z,95.92
2022-09-18T03:38:46.196Z,95.11
2022-09-18T03:41:15.396Z,92.16
2022-09-18T03:43:44.700Z,93.36
2022-09-18T03:46:15.043Z,91.62
2022-09-18T03:48:44.222Z,91.80
2022-09-18T03:51:14.449Z,92.03
2022-09-18T03:53:43.418Z,91.63
2022-09-18T03:56:30.324Z,89.10
2022-09-18T03:59:14.982Z,88.11
2022-09-18T04:02:06.846Z,87.29
2022-09-18T04:05:08.782Z,88.39
2022-09-18T04:08:17.199Z,89.28
2022-09-18T04:11:09.668Z,89.18
2022-09-18T04:13:38.718Z,90.28
2022-09-18T04:16:11.041Z,90.37
2022-09-18T04:18:40.264Z,91.12
2022-09-18T04:21:10.721Z,91.36
2022-09-18T04:23:41.086Z,93.71
2022-09-18T04:26:10.427Z,93.20
2022-09-18T04:28:46.995Z,93.27
2022-09-18T04:31:16.864Z,93.12
2022-09-18T04:33:46.277Z,93.04
2022-09-18T04:36:15.280Z,93.40
2022-09-18T04:38:45.704Z,92.45
2022-09-18T04:41:14.661Z,92.05
2022-09-18T04:43:45.268Z,90.77
2022-09-18T04:46:15.490Z,91.21
2022-09-18T04:48:49.243Z,91.97
2022-09-18T04:51:24.495Z,90.69
2022-09-18T04:53:56.207Z,92.30
2022-09-18T04:56:26.228Z,92.36
2022-09-18T04:58:56.385Z,94.45
2022-09-18T05:01:25.362Z,95.51
2022-09-18T05:03:54.412Z,95.14
2022-09-18T05:06:37.636Z,95.94
2022-09-18T05:09:08.071Z,96.56
2022-09-18T05:11:37.054Z,95.36
2022-09-18T05:14:07.017Z,96.76
2022-09-18T05:16:36.712Z,97.60
2022-09-18T05:19:35.661Z,96.84
2022-09-18T05:22:09.845Z,96.47
2022-09-18T05:24:44.287Z,96.53
2022-09-18T05:27:15.450Z,96.61
2022-09-18T05:29:45.110Z,97.85
2022-09-18T05:32:20.231Z,96.87
2022-09-18T05:34:50.170Z,98.40
2022-09-18T05:37:20.207Z,96.15
2022-09-18T05:39:56.421Z,94.26
2022-09-18T05:42:25.364Z,95.78
2022-09-18T05:44:55.897Z,93.93
2022-09-18T05:47:29.456Z,94.38
2022-09-18T05:49:58.361Z,94.78
2022-09-18T05:52:27.286Z,94.73
2022-09-18T05:54:57.788Z,96.08
2022-09-18T05:57:26.752Z,96.50
2022-09-18T05:59:55.972Z,97.14
2022-09-18T06:02:24.941Z,96.10
2022-09-18T06:05:02.090Z,96.95
2022-09-18T06:07:32.166Z,95.75
2022-09-18T06:10:03.432Z,96.27
2022-09-18T06:12:33.455Z,95.54
2022-09-18T06:15:04.178Z,93.71
2022-09-18T06:17:33.301Z,93.37
2022-09-18T06:20:06.822Z,92.75
2022-09-18T06:22:36.697Z,91.36
2022-09-18T06:25:08.208Z,91.26
2022-09-18T06:27:37.368Z,90.48
2022-09-18T06:30:07.517Z,91.78
2022-09-18T06:32:37.837Z,91.51
2022-09-18T06:35:07.965Z,91.10
2022-09-18T06:37:37.478Z,92.54
2022-09-18T06:40:15.641Z,92.30
2022-09-18T06:43:17.195Z,91.63
2022-09-18T06:46:04.400Z,91.36
2022-09-18T06:48:39.982Z,92.43
2022-09-18T06:51:10.749Z,93.76
2022-09-18T06:54:00.236Z,92.34
2022-09-18T06:56:30.641Z,92.51
2022-09-18T06:58:59.561Z,92.91
2022-09-18T07:01:28.834Z,92.78
2022-09-18T07:04:08.791Z,92.12
2022-09-18T07:06:44.457Z,91.91
2022-09-18T07:09:13.889Z,90.34
2022-09-18T07:11:57.968Z,90.67
2022-09-18T07:14:44.179Z,90.47
2022-09-18T07:17:18.217Z,90.63
2022-09-18T07:19:50.860Z,88.47
2022-09-18T07:22:24.223Z,86.25
2022-09-18T07:24:53.776Z,87.41
2022-09-18T07:27:25.405Z,90.45
2022-09-18T07:29:57.059Z,86.25
2022-09-18T07:32:26.878Z,87.25
2022-09-18T07:34:56.293Z,85.98
2022-09-18T07:37:30.261Z,88.61
2022-09-18T07:40:14.048Z,91.04
2022-09-18T07:43:00.853Z,91.15
2022-09-18T07:45:31.088Z,92.03
2022-09-18T07:48:03.584Z,92.47
2022-09-18T07:50:35.968Z,91.10
2022-09-18T07:53:09.375Z,91.70
2022-09-18T07:55:47.335Z,88.82
2022-09-18T07:58:18.277Z,88.60
2022-09-18T08:01:02.872Z,85.60
2022-09-18T08:03:34.257Z,85.42
2022-09-18T08:06:24.767Z,83.05
2022-09-18T08:09:09.179Z,83.75
2022-09-18T08:11:56.132Z,83.87
2022-09-18T08:14:45.065Z,85.59
2022-09-18T08:17:34.363Z,87.07
2022-09-18T08:20:21.823Z,83.88
2022-09-18T08:22:54.177Z,81.65
2022-09-18T08:25:28.391Z,81.58
2022-09-18T08:28:02.218Z,81.53
2022-09-18T08:30:52.723Z,81.80
2022-09-18T08:33:21.834Z,82.63
2022-09-18T08:35:51.266Z,83.92
2022-09-18T08:38:27.403Z,86.78
2022-09-18T08:41:36.741Z,87.50
2022-09-18T08:44:11.467Z,82.89
2022-09-18T08:46:49.543Z,85.10
2022-09-18T08:49:25.727Z,85.78
2022-09-18T08:52:04.658Z,85.16
2022-09-18T08:54:45.264Z,83.81
2022-09-18T08:57:38.372Z,80.70
2022-09-18T09:00:20.577Z,78.75
2022-09-18T09:03:23.945Z,74.08
2022-09-18T09:05:58.025Z,73.14
2022-09-18T09:09:01.700Z,74.67
2022-09-18T09:11:42.598Z,74.71
2022-09-18T09:14:52.876Z,75.53
2022-09-18T09:17:25.841Z,75.96
2022-09-18T09:20:07.777Z,74.43
2022-09-18T09:22:43.560Z,73.50
2022-09-18T09:25:20.363Z,70.59
2022-09-18T09:28:16.678Z,67.35
2022-09-18T09:31:18.811Z,69.03
2022-09-18T09:34:16.606Z,63.62
2022-09-18T09:36:57.629Z,60.57
2022-09-18T09:39:33.557Z,58.33
2022-09-18T09:42:07.886Z,61.97
2022-09-18T09:44:40.847Z,60.66
2022-09-18T09:47:24.680Z,60.84
2022-09-18T09:50:07.231Z,59.37
2022-09-18T09:52:41.105Z,59.88
2022-09-18T09:55:30.822Z,58.38
2022-09-18T09:58:13.453Z,57.45
2022-09-18T10:00:52.136Z,56.35
2022-09-18T10:03:35.784Z,55.97
2022-09-18T10:06:17.334Z,54.58
2022-09-18T10:08:55.918Z,56.88
2022-09-18T10:11:25.607Z,56.71
2022-09-18T10:14:03.504Z,55.88
2022-09-18T10:16:37.878Z,56.54
2022-09-18T10:19:15.719Z,57.00
2022-09-18T10:21:45.439Z,56.74
2022-09-18T10:24:22.731Z,58.16
2022-09-18T10:26:58.252Z,56.05
2022-09-18T10:29:27.443Z,55.15
2022-09-18T10:32:02.086Z,55.94
2022-09-18T10:34:40.392Z,56.17
2022-09-18T10:37:16.994Z,54.09
2022-09-18T10:39:53.613Z,53.55
2022-09-18T10:42:26.615Z,56.70
2022-09-18T10:45:06.173Z,57.09
2022-09-18T10:47:38.821Z,59.51
2022-09-18T10:50:19.366Z,63.12
2022-09-18T10:52:53.994Z,61.82
2022-09-18T10:55:32.817Z,67.57
2022-09-18T10:58:14.219Z,73.83
2022-09-18T11:00:56.298Z,75.01
2022-09-18T11:03:41.769Z,74.37
2022-09-18T11:06:23.896Z,73.16
2022-09-18T11:08:57.058Z,70.22
2022-09-18T11:11:31.289Z,66.35
2022-09-18T11:14:07.973Z,62.60
2022-09-18T11:16:57.620Z,60.42
2022-09-18T11:19:30.720Z,56.27
2022-09-18T11:22:04.340Z,56.62
2022-09-18T11:24:42.974Z,56.25
2022-09-18T11:27:22.386Z,55.24
2022-09-18T11:30:13.919Z,54.27
2022-09-18T11:32:47.412Z,56.25
2022-09-18T11:35:20.304Z,56.09
2022-09-18T11:37:53.887Z,54.42
2022-09-18T11:40:26.266Z,55.30
2022-09-18T11:42:57.898Z,58.42
2022-09-18T11:45:45.944Z,61.09
2022-09-18T11:48:28.290Z,69.29
2022-09-18T11:51:03.430Z,81.00
2022-09-18T11:53:40.354Z,81.98
2022-09-18T11:56:16.372Z,83.85
2022-09-18T11:58:54.869Z,85.33
2022-09-18T12:01:34.085Z,84.85
2022-09-18T12:04:14.196Z,82.55
2022-09-18T12:06:52.125Z,85.17
2022-09-18T12:09:26.440Z,86.12
2022-09-18T12:12:02.797Z,83.33
2022-09-18T12:14:41.173Z,79.63
2022-09-18T12:17:23.603Z,76.69
2022-09-18T12:19:56.069Z,74.88
2022-09-18T12:22:32.253Z,75.34
2022-09-18T12:25:10.723Z,69.73
2022-09-18T12:28:14.378Z,68.19
2022-09-18T12:30:54.648Z,66.46
2022-09-18T12:33:39.155Z,69.71
2022-09-18T12:36:41.577Z,69.67
2022-09-18T12:39:36.205Z,73.35
2022-09-18T12:42:19.839Z,72.23
2022-09-18T12:45:18.870Z,73.37
2022-09-18T12:48:14.984Z,73.99
2022-09-18T12:51:05.056Z,76.62
2022-09-18T12:53:45.871Z,76.00
2022-09-18T12:56:32.132Z,76.30
2022-09-18T12:59:31.129Z,74.90
2022-09-18T13:02:10.260Z,76.39
2022-09-18T13:04:46.796Z,73.72
2022-09-18T13:07:21.155Z,72.49
2022-09-18T13:10:00.212Z,72.21
2022-09-18T13:12:34.833Z,70.36
2022-09-18T13:15:14.121Z,69.42
2022-09-18T13:17:48.815Z,69.67
2022-09-18T13:20:24.887Z,72.01
2022-09-18T13:22:55.272Z,71.85
2022-09-18T13:25:29.341Z,71.46
2022-09-18T13:28:00.745Z,70.70
2022-09-18T13:30:31.412Z,71.09
2022-09-18T13:33:03.713Z,70.78
2022-09-18T13:35:35.981Z,70.45
2022-09-18T13:38:16.352Z,70.03
2022-09-18T13:40:47.795Z,70.96
2022-09-18T13:43:23.084Z,71.16
2022-09-18T13:45:52.800Z,72.03
2022-09-18T13:48:26.933Z,72.26
2022-09-18T13:51:01.343Z,74.37
2022-09-18T13:53:40.297Z,74.51
2022-09-18T13:56:12.842Z,76.00
2022-09-18T13:58:57.841Z,76.86
2022-09-18T14:02:02.470Z,78.47
2022-09-18T14:04:50.996Z,78.08
2022-09-18T14:07:56.734Z,79.86
2022-09-18T14:10:30.288Z,82.40
2022-09-18T14:13:32.538Z,83.68
2022-09-18T14:16:06.882Z,84.53
2022-09-18T14:18:40.955Z,84.62
2022-09-18T14:21:25.181Z,84.13
2022-09-18T14:24:36.535Z,83.66
2022-09-18T14:27:37.988Z,83.21
2022-09-18T14:30:22.616Z,82.79
2022-09-18T14:33:03.259Z,82.41
2022-09-18T14:35:42.027Z,81.11
2022-09-18T14:38:28.309Z,76.75
2022-09-18T14:41:09.315Z,70.62
2022-09-18T14:43:40.829Z,70.36
2022-09-18T14:46:19.933Z,70.35
2022-09-18T14:48:49.299Z,70.97
2022-09-18T14:51:21.167Z,72.80
2022-09-18T14:53:52.700Z,74.52
2022-09-18T14:56:28.657Z,74.57
2022-09-18T14:59:00.168Z,71.57
2022-09-18T15:01:31.234Z,72.18
2022-09-18T15:04:03.241Z,74.49
2022-09-18T15:06:39.653Z,74.96
2022-09-18T15:09:12.958Z,75.31
2022-09-18T15:12:01.468Z,71.19
2022-09-18T15:14:41.815Z,74.13
2022-09-18T15:17:19.702Z,72.37
2022-09-18T15:19:59.981Z,70.39
2022-09-18T15:22:30.491Z,71.26
2022-09-18T15:25:01.946Z,70.46
2022-09-18T15:27:33.043Z,70.99
2022-09-18T15:30:05.733Z,70.41
2022-09-18T15:32:39.771Z,74.18
2022-09-18T15:35:15.805Z,75.70
2022-09-18T15:37:54.739Z,72.59
2022-09-18T15:40:29.061Z,71.32
2022-09-18T15:43:04.732Z,69.75
2022-09-18T15:45:36.114Z,71.02
2022-09-18T15:48:35.248Z,71.38
2022-09-18T15:51:09.604Z,70.95
2022-09-18T15:53:38.703Z,72.99
2022-09-18T15:56:11.024Z,74.55
2022-09-18T15:58:51.456Z,76.26
2022-09-18T16:01:27.255Z,77.89
2022-09-18T16:04:06.675Z,77.12
2022-09-18T16:06:43.499Z,78.79
2022-09-18T16:09:33.686Z,78.38
2022-09-18T16:12:02.866Z,78.62
2022-09-18T16:14:47.599Z,80.22
2022-09-18T16:17:39.791Z,80.31
2022-09-18T16:20:33.834Z,80.86
2022-09-18T16:23:20.833Z,78.95
2022-09-18T16:26:11.422Z,78.23
2022-09-18T16:28:44.011Z,77.57
2022-09-18T16:31:16.687Z,77.43
2022-09-18T16:33:55.269Z,77.88
2022-09-18T16:36:28.980Z,76.79
2022-09-18T16:39:00.608Z,76.95
2022-09-18T16:41:30.363Z,77.91
2022-09-18T16:44:00.108Z,79.32
2022-09-18T16:46:35.544Z,79.36
2022-09-18T16:49:04.605Z,79.22
2022-09-18T16:51:34.090Z,80.56
2022-09-18T16:54:03.352Z,81.48
2022-09-18T16:56:38.879Z,82.17
2022-09-18T16:59:08.577Z,81.63
2022-09-18T17:02:02.433Z,82.09
2022-09-18T17:04:29.656Z,83.21
2022-09-18T17:06:59.026Z,83.65
2022-09-18T17:09:28.750Z,84.98
2022-09-18T17:12:01.541Z,84.78
2022-09-18T17:14:30.724Z,85.46
2022-09-18T17:17:05.895Z,85.59
2022-09-18T17:19:36.968Z,86.30
2022-09-18T17:22:08.755Z,87.26
2022-09-18T17:24:38.054Z,87.47
2022-09-18T17:27:07.008Z,86.71
2022-09-18T17:29:36.208Z,87.64
2022-09-18T17:32:07.669Z,86.93
2022-09-18T17:34:36.921Z,87.43
2022-09-18T17:37:06.293Z,87.98
2022-09-18T17:39:35.474Z,88.78
2022-09-18T17:42:04.933Z,88.63
2022-09-18T17:44:35.303Z,88.37
2022-09-18T17:47:05.914Z,90.08
2022-09-18T17:49:35.295Z,90.47
2022-09-18T17:52:05.442Z,91.50
2022-09-18T17:54:35.989Z,91.93
2022-09-18T17:57:11.431Z,92.57
2022-09-18T17:59:41.453Z,92.80
2022-09-18T18:02:14.074Z,93.26
2022-09-18T18:04:43.234Z,94.44
2022-09-18T18:07:12.503Z,95.24
2022-09-18T18:09:41.837Z,96.71
2022-09-18T18:12:11.051Z,95.56
2022-09-18T18:14:41.603Z,96.56
2022-09-18T18:17:12.896Z,97.48
2022-09-18T18:19:42.634Z,96.80
2022-09-18T18:22:14.088Z,98.12
2022-09-18T18:24:43.120Z,99.15
2022-09-18T18:27:19.938Z,99.01
2022-09-18T18:29:53.528Z,99.17
2022-09-18T18:32:25.589Z,100.00
2022-09-18T18:34:55.476Z,100.00
2022-09-18T18:37:24.673Z,100.00
2022-09-18T18:39:54.135Z,100.00
2022-09-18T18:42:23.315Z,100.00
2022-09-18T18:44:52.878Z,100.00
2022-09-18T18:47:23.698Z,100.00
2022-09-18T18:49:54.500Z,100.00
2022-09-18T18:52:23.635Z,100.00
2022-09-18T18:54:55.486Z,100.00
2022-09-18T18:57:24.610Z,100.00
2022-09-18T18:59:53.810Z,100.00
2022-09-18T19:02:24.781Z,100.00
2022-09-18T19:05:02.686Z,100.00
2022-09-18T19:07:32.437Z,100.00
2022-09-18T19:10:02.173Z,100.00
2022-09-18T19:12:32.298Z,100.00
2022-09-18T19:15:01.440Z,100.00
2022-09-18T19:17:31.952Z,100.00
2022-09-18T19:20:01.116Z,100.00
2022-09-18T19:22:30.138Z,100.00
2022-09-18T19:25:01.104Z,100.00
2022-09-18T19:27:30.740Z,100.00
2022-09-18T19:29:59.746Z,100.00
2022-09-18T19:32:29.407Z,100.00
2022-09-18T19:35:00.441Z,100.00
2022-09-18T19:37:30.821Z,100.00
2022-09-18T19:39:59.927Z,100.00
2022-09-18T19:42:32.612Z,100.00
2022-09-18T19:45:04.227Z,100.00
2022-09-18T19:47:40.889Z,100.00
2022-09-18T19:50:21.310Z,100.00
2022-09-18T19:52:51.514Z,100.00
2022-09-18T19:55:21.646Z,100.00
2022-09-18T19:57:53.871Z,100.00
2022-09-18T20:00:23.313Z,100.00
2022-09-18T20:02:54.073Z,100.00
2022-09-18T20:05:26.142Z,100.00
2022-09-18T20:07:55.399Z,100.00
2022-09-18T20:10:25.392Z,100.00
2022-09-18T20:12:54.658Z,100.00
2022-09-18T20:15:23.659Z,100.00
2022-09-18T20:17:52.768Z,100.00
2022-09-18T20:20:23.727Z,100.00
2022-09-18T20:22:56.899Z,100.00
2022-09-18T20:25:26.089Z,100.00
2022-09-18T20:27:55.614Z,100.00
2022-09-18T20:30:26.621Z,100.00
2022-09-18T20:32:55.690Z,100.00
2022-09-18T20:35:26.908Z,100.00
2022-09-18T20:37:59.890Z,100.00
2022-09-18T20:40:29.111Z,100.00
2022-09-18T20:42:58.347Z,100.00
2022-09-18T20:45:28.250Z,100.00
2022-09-18T20:48:04.140Z,100.00
2022-09-18T20:50:35.295Z,100.00
2022-09-18T20:53:08.994Z,100.00
2022-09-18T20:55:37.978Z,100.00
2022-09-18T20:58:06.997Z,100.00
2022-09-18T21:00:37.815Z,100.00
2022-09-18T21:03:07.197Z,100.00
2022-09-18T21:05:41.128Z,100.00
2022-09-18T21:08:10.661Z,100.00
2022-09-18T21:10:46.626Z,100.00
2022-09-18T21:13:17.287Z,100.00
2022-09-18T21:15:48.622Z,100.00
2022-09-18T21:18:19.399Z,100.00
2022-09-18T21:20:49.673Z,100.00
2022-09-18T21:23:36.145Z,100.00
2022-09-18T21:26:17.329Z,100.00
2022-09-18T21:28:46.618Z,100.00
2022-09-18T21:31:15.641Z,100.00
2022-09-18T21:33:44.679Z,100.00
2022-09-18T21:36:15.347Z,100.00
2022-09-18T21:38:44.892Z,100.00
2022-09-18T21:41:14.454Z,100.00
2022-09-18T21:43:44.781Z,100.00
2022-09-18T21:46:17.499Z,100.00
2022-09-18T21:48:48.303Z,100.00
2022-09-18T21:51:19.124Z,100.00
2022-09-18T21:53:48.223Z,100.00
2022-09-18T21:56:19.887Z,100.00
2022-09-18T21:58:50.306Z,100.00
2022-09-18T22:01:21.294Z,100.00
2022-09-18T22:03:52.292Z,100.00
2022-09-18T22:06:24.502Z,100.00
2022-09-18T22:08:56.301Z,100.00
2022-09-18T22:11:27.245Z,100.00
2022-09-18T22:13:58.515Z,100.00
2022-09-18T22:16:29.418Z,100.00
2022-09-18T22:18:58.654Z,100.00
2022-09-18T22:21:31.029Z,100.00
2022-09-18T22:24:08.679Z,100.00
2022-09-18T22:26:40.250Z,100.00
2022-09-18T22:29:15.256Z,100.00
2022-09-18T22:31:46.477Z,100.00
2022-09-18T22:34:17.378Z,100.00
2022-09-18T22:36:48.532Z,100.00
2022-09-18T22:39:19.394Z,100.00
2022-09-18T22:41:49.276Z,100.00
2022-09-18T22:44:20.490Z,100.00
2022-09-18T22:46:51.979Z,100.00
2022-09-18T22:49:22.659Z,100.00
2022-09-18T22:51:53.318Z,100.00
2022-09-18T22:54:26.431Z,100.00
2022-09-18T22:56:56.871Z,100.00
2022-09-18T22:59:28.492Z,100.00
2022-09-18T23:02:00.135Z,100.00
2022-09-18T23:04:31.274Z,100.00
2022-09-18T23:07:02.462Z,100.00
2022-09-18T23:09:31.988Z,100.00
2022-09-18T23:12:01.324Z,100.00
2022-09-18T23:14:32.206Z,100.00
2022-09-18T23:17:03.104Z,100.00
2022-09-18T23:19:34.967Z,100.00
2022-09-18T23:22:06.368Z,100.00
2022-09-18T23:24:35.455Z,100.00
2022-09-18T23:27:04.549Z,100.00
2022-09-18T23:29:35.325Z,100.00
2022-09-18T23:32:04.704Z,100.00
2022-09-18T23:34:34.422Z,100.00
2022-09-18T23:37:04.854Z,100.00
2022-09-18T23:39:34.963Z,100.00
2022-09-18T23:42:05.691Z,100.00
2022-09-18T23:44:34.896Z,100.00
2022-09-18T23:47:04.427Z,100.00
2022-09-18T23:49:33.689Z,100.00
2022-09-18T23:52:04.452Z,100.00
2022-09-18T23:54:33.765Z,100.00
2022-09-18T23:57:02.718Z,100.00
2022-09-18T23:59:32.014Z,100.00
